sensor_id;sensor_type;location;lat;lon;timestamp;pressure;altitude;pressure_sealevel;temperature;humidity
73516;BME280;61763;51.416;5.442;2022-09-25T00:01:30;101463.41;;;10.83;100.00
73516;BME280;61763;51.416;5.442;2022-09-25T00:03:56;101451.94;;;10.78;100.00
73516;BME280;61763;51.416;5.442;2022-09-25T00:06:23;101468.47;;;10.91;100.00
73516;BME280;61763;51.416;5.442;2022-09-25T00:08:49;101463.34;;;10.84;100.00
73516;BME280;61763;51.416;5.442;2022-09-25T00:11:21;101474.16;;;10.84;100.00
73516;BME280;61763;51.416;5.442;2022-09-25T00:13:46;101463.59;;;10.78;100.00
73516;BME280;61763;51.416;5.442;2022-09-25T00:16:15;101469.13;;;10.75;100.00
73516;BME280;61763;51.416;5.442;2022-09-25T00:18:41;101462.28;;;10.89;100.00
73516;BME280;61763;51.416;5.442;2022-09-25T00:21:26;101468.75;;;10.84;100.00
73516;BME280;61763;51.416;5.442;2022-09-25T00:23:58;101471.56;;;10.81;100.00
73516;BME280;61763;51.416;5.442;2022-09-25T00:26:29;101472.63;;;10.77;100.00
73516;BME280;61763;51.416;5.442;2022-09-25T00:28:56;101478.16;;;10.74;100.00
73516;BME280;61763;51.416;5.442;2022-09-25T00:31:22;101467.31;;;10.76;100.00
73516;BME280;61763;51.416;5.442;2022-09-25T00:33:52;101469.94;;;10.77;100.00
73516;BME280;61763;51.416;5.442;2022-09-25T00:36:19;101477.28;;;10.74;100.00
73516;BME280;61763;51.416;5.442;2022-09-25T00:38:45;101472.09;;;10.69;100.00
73516;BME280;61763;51.416;5.442;2022-09-25T00:41:14;101465.84;;;10.67;100.00
73516;BME280;61763;51.416;5.442;2022-09-25T00:43:45;101469.38;;;10.69;100.00
73516;BME280;61763;51.416;5.442;2022-09-25T00:46:21;101472.16;;;10.67;100.00
73516;BME280;61763;51.416;5.442;2022-09-25T00:49:09;101471.38;;;10.64;100.00
73516;BME280;61763;51.416;5.442;2022-09-25T00:54:07;101476.31;;;10.52;100.00
73516;BME280;61763;51.416;5.442;2022-09-25T00:56:39;101477.28;;;10.51;100.00
73516;BME280;61763;51.416;5.442;2022-09-25T00:59:09;101475.59;;;10.49;100.00
73516;BME280;61763;51.416;5.442;2022-09-25T01:01:35;101476.56;;;10.46;100.00
73516;BME280;61763;51.416;5.442;2022-09-25T01:04:01;101468.41;;;10.48;100.00
73516;BME280;61763;51.416;5.442;2022-09-25T01:06:27;101466.81;;;10.44;100.00
73516;BME280;61763;51.416;5.442;2022-09-25T01:08:53;101468.66;;;10.42;100.00
73516;BME280;61763;51.416;5.442;2022-09-25T01:11:19;101470.63;;;10.38;100.00
73516;BME280;61763;51.416;5.442;2022-09-25T01:13:45;101467.88;;;10.40;100.00
73516;BME280;61763;51.416;5.442;2022-09-25T01:16:17;101477.94;;;10.34;100.00
73516;BME280;61763;51.416;5.442;2022-09-25T01:19:05;101474.47;;;10.31;100.00
73516;BME280;61763;51.416;5.442;2022-09-25T01:21:54;101477.97;;;10.33;100.00
73516;BME280;61763;51.416;5.442;2022-09-25T01:27:36;101482.41;;;10.36;100.00
73516;BME280;61763;51.416;5.442;2022-09-25T01:30:13;101482.22;;;10.40;100.00
73516;BME280;61763;51.416;5.442;2022-09-25T01:32:51;101479.59;;;10.39;100.00
73516;BME280;61763;51.416;5.442;2022-09-25T01:35:51;101479.78;;;10.34;100.00
73516;BME280;61763;51.416;5.442;2022-09-25T01:38:33;101479.97;;;10.28;100.00
73516;BME280;61763;51.416;5.442;2022-09-25T01:41:14;101483.56;;;10.28;100.00
73516;BME280;61763;51.416;5.442;2022-09-25T01:43:49;101482.09;;;10.20;100.00
73516;BME280;61763;51.416;5.442;2022-09-25T01:46:36;101483.06;;;10.17;100.00
73516;BME280;61763;51.416;5.442;2022-09-25T01:49:32;101493.19;;;10.12;100.00
73516;BME280;61763;51.416;5.442;2022-09-25T01:52:02;101488.84;;;10.08;100.00
73516;BME280;61763;51.416;5.442;2022-09-25T01:54:38;101497.09;;;10.03;100.00
73516;BME280;61763;51.416;5.442;2022-09-25T02:02:17;101498.94;;;9.77;100.00
73516;BME280;61763;51.416;5.442;2022-09-25T02:07:19;101503.34;;;9.55;100.00
73516;BME280;61763;51.416;5.442;2022-09-25T02:09:57;101499.22;;;9.44;100.00
73516;BME280;61763;51.416;5.442;2022-09-25T02:12:32;101511.03;;;9.40;100.00
73516;BME280;61763;51.416;5.442;2022-09-25T02:15:03;101508.72;;;9.29;100.00
73516;BME280;61763;51.416;5.442;2022-09-25T02:17:37;101502.53;;;9.26;100.00
73516;BME280;61763;51.416;5.442;2022-09-25T02:20:28;101500.38;;;9.10;100.00
73516;BME280;61763;51.416;5.442;2022-09-25T02:23:24;101509.59;;;9.03;100.00
73516;BME280;61763;51.416;5.442;2022-09-25T02:26:25;101506.91;;;9.03;100.00
73516;BME280;61763;51.416;5.442;2022-09-25T02:28:52;101508.47;;;9.10;100.00
73516;BME280;61763;51.416;5.442;2022-09-25T02:31:20;101505.13;;;9.02;100.00
73516;BME280;61763;51.416;5.442;2022-09-25T02:33:48;101502.59;;;8.98;100.00
73516;BME280;61763;51.416;5.442;2022-09-25T02:36:18;101501.78;;;8.96;100.00
73516;BME280;61763;51.416;5.442;2022-09-25T02:38:44;101495.59;;;8.92;100.00
73516;BME280;61763;51.416;5.442;2022-09-25T02:49:24;101498.25;;;8.93;100.00
73516;BME280;61763;51.416;5.442;2022-09-25T02:55:04;101495.44;;;8.98;100.00
73516;BME280;61763;51.416;5.442;2022-09-25T03:00:03;101490.97;;;8.97;100.00
73516;BME280;61763;51.416;5.442;2022-09-25T03:02:31;101494.63;;;8.94;100.00
73516;BME280;61763;51.416;5.442;2022-09-25T03:04:58;101492.00;;;8.93;100.00
73516;BME280;61763;51.416;5.442;2022-09-25T03:07:25;101493.00;;;8.89;100.00
73516;BME280;61763;51.416;5.442;2022-09-25T03:09:51;101495.81;;;8.86;100.00
73516;BME280;61763;51.416;5.442;2022-09-25T03:12:18;101486.00;;;8.83;100.00
73516;BME280;61763;51.416;5.442;2022-09-25T03:14:43;101492.31;;;8.84;100.00
73516;BME280;61763;51.416;5.442;2022-09-25T03:17:10;101478.09;;;8.79;100.00
73516;BME280;61763;51.416;5.442;2022-09-25T03:19:36;101482.78;;;8.73;100.00
73516;BME280;61763;51.416;5.442;2022-09-25T03:22:02;101481.16;;;8.68;100.00
73516;BME280;61763;51.416;5.442;2022-09-25T03:24:28;101488.41;;;8.66;100.00
73516;BME280;61763;51.416;5.442;2022-09-25T03:26:54;101485.88;;;8.59;100.00
73516;BME280;61763;51.416;5.442;2022-09-25T03:29:20;101485.38;;;8.48;100.00
73516;BME280;61763;51.416;5.442;2022-09-25T03:31:46;101491.03;;;8.37;100.00
73516;BME280;61763;51.416;5.442;2022-09-25T03:34:16;101493.00;;;8.32;100.00
73516;BME280;61763;51.416;5.442;2022-09-25T03:36:42;101487.84;;;8.24;100.00
73516;BME280;61763;51.416;5.442;2022-09-25T03:39:11;101496.03;;;8.20;100.00
73516;BME280;61763;51.416;5.442;2022-09-25T03:41:39;101497.16;;;8.13;100.00
73516;BME280;61763;51.416;5.442;2022-09-25T03:44:05;101504.28;;;8.14;100.00
73516;BME280;61763;51.416;5.442;2022-09-25T03:46:32;101499.97;;;8.08;100.00
73516;BME280;61763;51.416;5.442;2022-09-25T03:48:59;101499.41;;;7.97;100.00
73516;BME280;61763;51.416;5.442;2022-09-25T03:51:26;101503.31;;;7.86;100.00
73516;BME280;61763;51.416;5.442;2022-09-25T03:53:52;101508.03;;;7.77;100.00
73516;BME280;61763;51.416;5.442;2022-09-25T03:56:20;101504.69;;;7.68;100.00
73516;BME280;61763;51.416;5.442;2022-09-25T03:58:47;101503.09;;;7.61;100.00
73516;BME280;61763;51.416;5.442;2022-09-25T04:01:14;101497.78;;;7.58;100.00
73516;BME280;61763;51.416;5.442;2022-09-25T04:03:40;101496.19;;;7.52;100.00
73516;BME280;61763;51.416;5.442;2022-09-25T04:06:12;101493.63;;;7.46;100.00
73516;BME280;61763;51.416;5.442;2022-09-25T04:08:38;101494.75;;;7.39;100.00
73516;BME280;61763;51.416;5.442;2022-09-25T04:11:04;101502.94;;;7.33;100.00
73516;BME280;61763;51.416;5.442;2022-09-25T04:13:34;101495.00;;;7.28;100.00
73516;BME280;61763;51.416;5.442;2022-09-25T04:16:05;101496.13;;;7.19;100.00
73516;BME280;61763;51.416;5.442;2022-09-25T04:18:30;101490.88;;;7.15;100.00
73516;BME280;61763;51.416;5.442;2022-09-25T04:21:00;101495.47;;;7.11;100.00
73516;BME280;61763;51.416;5.442;2022-09-25T04:23:26;101494.59;;;7.09;100.00
73516;BME280;61763;51.416;5.442;2022-09-25T04:25:52;101498.13;;;7.13;100.00
73516;BME280;61763;51.416;5.442;2022-09-25T04:28:19;101493.69;;;7.10;100.00
73516;BME280;61763;51.416;5.442;2022-09-25T04:30:45;101494.59;;;7.09;100.00
73516;BME280;61763;51.416;5.442;2022-09-25T04:33:11;101498.25;;;7.08;100.00
73516;BME280;61763;51.416;5.442;2022-09-25T04:35:55;101500.97;;;7.05;100.00
73516;BME280;61763;51.416;5.442;2022-09-25T04:38:21;101496.63;;;7.01;100.00
73516;BME280;61763;51.416;5.442;2022-09-25T04:40:46;101494.94;;;6.97;100.00
73516;BME280;61763;51.416;5.442;2022-09-25T04:43:12;101497.81;;;6.89;100.00
73516;BME280;61763;51.416;5.442;2022-09-25T04:45:37;101497.06;;;6.82;100.00
73516;BME280;61763;51.416;5.442;2022-09-25T04:48:03;101499.03;;;6.76;100.00
73516;BME280;61763;51.416;5.442;2022-09-25T04:50:29;101498.31;;;6.68;100.00
73516;BME280;61763;51.416;5.442;2022-09-25T04:52:58;101505.53;;;6.65;100.00
73516;BME280;61763;51.416;5.442;2022-09-25T04:55:24;101495.56;;;6.71;100.00
73516;BME280;61763;51.416;5.442;2022-09-25T04:57:56;101502.66;;;6.73;100.00
73516;BME280;61763;51.416;5.442;2022-09-25T05:00:23;101494.66;;;6.72;100.00
73516;BME280;61763;51.416;5.442;2022-09-25T05:02:50;101498.28;;;6.69;100.00
73516;BME280;61763;51.416;5.442;2022-09-25T05:05:15;101489.44;;;6.65;100.00
73516;BME280;61763;51.416;5.442;2022-09-25T05:07:54;101486.75;;;6.65;100.00
73516;BME280;61763;51.416;5.442;2022-09-25T05:10:22;101489.66;;;6.55;100.00
73516;BME280;61763;51.416;5.442;2022-09-25T05:12:47;101494.41;;;6.43;100.00
73516;BME280;61763;51.416;5.442;2022-09-25T05:15:14;101497.25;;;6.36;100.00
73516;BME280;61763;51.416;5.442;2022-09-25T05:17:39;101490.16;;;6.35;100.00
73516;BME280;61763;51.416;5.442;2022-09-25T05:20:05;101493.78;;;6.32;100.00
73516;BME280;61763;51.416;5.442;2022-09-25T05:22:31;101497.44;;;6.28;100.00
73516;BME280;61763;51.416;5.442;2022-09-25T05:24:56;101494.78;;;6.26;100.00
73516;BME280;61763;51.416;5.442;2022-09-25T05:27:21;101485.00;;;6.24;100.00
73516;BME280;61763;51.416;5.442;2022-09-25T05:29:47;101480.59;;;6.21;100.00
73516;BME280;61763;51.416;5.442;2022-09-25T05:32:13;101490.47;;;6.19;100.00
73516;BME280;61763;51.416;5.442;2022-09-25T05:34:40;101478.91;;;6.17;100.00
73516;BME280;61763;51.416;5.442;2022-09-25T05:37:05;101480.78;;;6.12;100.00
73516;BME280;61763;51.416;5.442;2022-09-25T05:39:31;101478.13;;;6.12;100.00
73516;BME280;61763;51.416;5.442;2022-09-25T05:41:56;101490.69;;;6.10;100.00
73516;BME280;61763;51.416;5.442;2022-09-25T05:44:21;101487.16;;;6.06;100.00
73516;BME280;61763;51.416;5.442;2022-09-25T05:46:49;101483.63;;;6.06;100.00
73516;BME280;61763;51.416;5.442;2022-09-25T05:49:14;101488.97;;;6.06;100.00
73516;BME280;61763;51.416;5.442;2022-09-25T05:51:40;101486.31;;;6.04;100.00
73516;BME280;61763;51.416;5.442;2022-09-25T05:54:05;101497.03;;;6.04;100.00
73516;BME280;61763;51.416;5.442;2022-09-25T05:56:30;101491.69;;;6.04;100.00
73516;BME280;61763;51.416;5.442;2022-09-25T05:58:56;101502.31;;;6.09;100.00
73516;BME280;61763;51.416;5.442;2022-09-25T06:01:22;101494.09;;;6.17;100.00
73516;BME280;61763;51.416;5.442;2022-09-25T06:03:48;101502.75;;;6.29;100.00
73516;BME280;61763;51.416;5.442;2022-09-25T06:06:14;101498.22;;;6.31;100.00
73516;BME280;61763;51.416;5.442;2022-09-25T06:08:39;101503.59;;;6.33;100.00
73516;BME280;61763;51.416;5.442;2022-09-25T06:11:05;101500.88;;;6.35;100.00
73516;BME280;61763;51.416;5.442;2022-09-25T06:13:32;101499.94;;;6.36;100.00
73516;BME280;61763;51.416;5.442;2022-09-25T06:16:01;101495.50;;;6.35;100.00
73516;BME280;61763;51.416;5.442;2022-09-25T06:18:26;101504.38;;;6.37;100.00
73516;BME280;61763;51.416;5.442;2022-09-25T06:21:01;101493.72;;;6.34;100.00
73516;BME280;61763;51.416;5.442;2022-09-25T06:23:27;101502.53;;;6.39;100.00
73516;BME280;61763;51.416;5.442;2022-09-25T06:25:53;101506.00;;;6.44;100.00
73516;BME280;61763;51.416;5.442;2022-09-25T06:28:18;101502.25;;;6.53;100.00
73516;BME280;61763;51.416;5.442;2022-09-25T06:30:44;101506.56;;;6.60;100.00
73516;BME280;61763;51.416;5.442;2022-09-25T06:33:11;101505.38;;;6.72;100.00
73516;BME280;61763;51.416;5.442;2022-09-25T06:38:07;101504.72;;;6.99;100.00
73516;BME280;61763;51.416;5.442;2022-09-25T06:40:32;101505.19;;;7.17;100.00
73516;BME280;61763;51.416;5.442;2022-09-25T06:43:02;101499.47;;;7.29;100.00
73516;BME280;61763;51.416;5.442;2022-09-25T06:45:30;101503.56;;;7.44;100.00
73516;BME280;61763;51.416;5.442;2022-09-25T06:48:10;101495.16;;;7.57;100.00
73516;BME280;61763;51.416;5.442;2022-09-25T06:50:41;101502.94;;;7.67;100.00
73516;BME280;61763;51.416;5.442;2022-09-25T06:53:08;101506.22;;;7.77;100.00
73516;BME280;61763;51.416;5.442;2022-09-25T06:55:35;101510.41;;;7.87;100.00
73516;BME280;61763;51.416;5.442;2022-09-25T06:58:02;101506.38;;;8.04;100.00
73516;BME280;61763;51.416;5.442;2022-09-25T07:00:28;101503.38;;;8.15;100.00
73516;BME280;61763;51.416;5.442;2022-09-25T07:02:57;101508.28;;;8.30;100.00
73516;BME280;61763;51.416;5.442;2022-09-25T07:05:41;101508.78;;;8.45;100.00
73516;BME280;61763;51.416;5.442;2022-09-25T07:08:11;101511.09;;;8.57;100.00
73516;BME280;61763;51.416;5.442;2022-09-25T07:10:47;101504.56;;;8.66;100.00
73516;BME280;61763;51.416;5.442;2022-09-25T07:13:13;101511.25;;;8.81;100.00
73516;BME280;61763;51.416;5.442;2022-09-25T07:15:39;101513.56;;;8.91;100.00
73516;BME280;61763;51.416;5.442;2022-09-25T07:18:04;101512.34;;;9.02;100.00
73516;BME280;61763;51.416;5.442;2022-09-25T07:20:29;101513.63;;;9.17;100.00
73516;BME280;61763;51.416;5.442;2022-09-25T07:22:59;101522.19;;;9.29;100.00
73516;BME280;61763;51.416;5.442;2022-09-25T07:25:28;101516.53;;;9.37;100.00
73516;BME280;61763;51.416;5.442;2022-09-25T07:27:54;101512.53;;;9.49;100.00
73516;BME280;61763;51.416;5.442;2022-09-25T07:30:19;101515.63;;;9.63;100.00
73516;BME280;61763;51.416;5.442;2022-09-25T07:32:45;101518.81;;;9.75;100.00
73516;BME280;61763;51.416;5.442;2022-09-25T07:35:10;101521.91;;;9.88;100.00
73516;BME280;61763;51.416;5.442;2022-09-25T07:37:35;101518.84;;;9.98;100.00
73516;BME280;61763;51.416;5.442;2022-09-25T07:40:02;101519.16;;;10.14;100.00
73516;BME280;61763;51.416;5.442;2022-09-25T07:42:28;101515.75;;;10.33;100.00
73516;BME280;61763;51.416;5.442;2022-09-25T07:44:54;101516.13;;;10.47;100.00
73516;BME280;61763;51.416;5.442;2022-09-25T07:47:19;101529.66;;;10.69;100.00
73516;BME280;61763;51.416;5.442;2022-09-25T07:49:45;101524.56;;;10.84;100.00
73516;BME280;61763;51.416;5.442;2022-09-25T07:52:11;101518.16;;;11.09;100.00
73516;BME280;61763;51.416;5.442;2022-09-25T07:54:38;101522.19;;;11.20;100.00
73516;BME280;61763;51.416;5.442;2022-09-25T07:57:03;101521.38;;;11.39;100.00
73516;BME280;61763;51.416;5.442;2022-09-25T07:59:28;101523.16;;;11.61;100.00
73516;BME280;61763;51.416;5.442;2022-09-25T08:01:54;101514.41;;;11.74;100.00
73516;BME280;61763;51.416;5.442;2022-09-25T08:04:19;101510.88;;;11.95;99.50
73516;BME280;61763;51.416;5.442;2022-09-25T08:06:44;101509.75;;;12.19;96.30
73516;BME280;61763;51.416;5.442;2022-09-25T08:09:10;101505.66;;;12.30;96.89
73516;BME280;61763;51.416;5.442;2022-09-25T08:11:36;101500.31;;;12.47;93.32
73516;BME280;61763;51.416;5.442;2022-09-25T08:14:02;101502.72;;;12.53;93.64
73516;BME280;61763;51.416;5.442;2022-09-25T08:16:28;101504.81;;;12.85;88.45
73516;BME280;61763;51.416;5.442;2022-09-25T08:18:55;101498.56;;;13.02;87.72
73516;BME280;61763;51.416;5.442;2022-09-25T08:21:20;101500.47;;;13.17;87.58
73516;BME280;61763;51.416;5.442;2022-09-25T08:23:50;101502.22;;;13.37;85.47
73516;BME280;61763;51.416;5.442;2022-09-25T08:26:16;101499.50;;;13.55;83.62
73516;BME280;61763;51.416;5.442;2022-09-25T08:28:43;101497.66;;;13.73;82.15
73516;BME280;61763;51.416;5.442;2022-09-25T08:31:08;101505.13;;;13.85;83.29
73516;BME280;61763;51.416;5.442;2022-09-25T08:33:34;101496.78;;;14.06;81.83
73516;BME280;61763;51.416;5.442;2022-09-25T08:36:02;101493.94;;;14.25;78.34
73516;BME280;61763;51.416;5.442;2022-09-25T08:38:28;101500.00;;;14.30;80.50
73516;BME280;61763;51.416;5.442;2022-09-25T08:43:22;101498.53;;;14.56;78.18
73516;BME280;61763;51.416;5.442;2022-09-25T08:45:49;101503.28;;;14.68;75.01
73516;BME280;61763;51.416;5.442;2022-09-25T08:48:50;101499.59;;;14.85;76.48
73516;BME280;61763;51.416;5.442;2022-09-25T08:51:32;101495.91;;;15.02;73.54
73516;BME280;61763;51.416;5.442;2022-09-25T08:53:59;101488.00;;;15.14;75.47
73516;BME280;61763;51.416;5.442;2022-09-25T08:56:27;101501.13;;;15.21;74.04
73516;BME280;61763;51.416;5.442;2022-09-25T09:01:28;101499.41;;;15.35;72.31
73516;BME280;61763;51.416;5.442;2022-09-25T09:04:23;101487.91;;;15.60;72.63
73516;BME280;61763;51.416;5.442;2022-09-25T09:06:56;101487.50;;;15.82;67.44
73516;BME280;61763;51.416;5.442;2022-09-25T09:09:30;101476.00;;;15.77;71.06
73516;BME280;61763;51.416;5.442;2022-09-25T09:12:10;101480.31;;;15.96;69.29
73516;BME280;61763;51.416;5.442;2022-09-25T09:14:44;101484.31;;;16.19;66.99
73516;BME280;61763;51.416;5.442;2022-09-25T09:19:44;101480.50;;;16.36;66.70
73516;BME280;61763;51.416;5.442;2022-09-25T09:22:12;101479.31;;;16.40;64.85
73516;BME280;61763;51.416;5.442;2022-09-25T09:25:15;101478.34;;;16.26;65.47
73516;BME280;61763;51.416;5.442;2022-09-25T09:39:55;101478.44;;;16.39;62.73
73516;BME280;61763;51.416;5.442;2022-09-25T09:45:26;101476.88;;;16.35;62.58
73516;BME280;61763;51.416;5.442;2022-09-25T09:47:58;101476.88;;;16.50;61.96
73516;BME280;61763;51.416;5.442;2022-09-25T09:50:43;101475.94;;;16.63;59.07
73516;BME280;61763;51.416;5.442;2022-09-25T09:53:28;101476.66;;;16.94;58.14
73516;BME280;61763;51.416;5.442;2022-09-25T09:56:43;101479.22;;;16.83;58.34
73516;BME280;61763;51.416;5.442;2022-09-25T09:58:48;101467.44;;;16.41;62.04
73516;BME280;61763;51.416;5.442;2022-09-25T10:01:19;101473.31;;;16.35;60.02
73516;BME280;61763;51.416;5.442;2022-09-25T10:03:48;101472.25;;;16.23;61.71
73516;BME280;61763;51.416;5.442;2022-09-25T10:06:16;101468.56;;;16.09;59.90
73516;BME280;61763;51.416;5.442;2022-09-25T10:08:42;101465.63;;;15.84;61.03
73516;BME280;61763;51.416;5.442;2022-09-25T10:11:16;101467.66;;;16.09;62.15
73516;BME280;61763;51.416;5.442;2022-09-25T10:13:43;101463.66;;;16.43;61.04
73516;BME280;61763;51.416;5.442;2022-09-25T10:16:13;101457.91;;;16.90;59.07
73516;BME280;61763;51.416;5.442;2022-09-25T10:23:51;101449.34;;;17.75;55.50
73516;BME280;61763;51.416;5.442;2022-09-25T10:29:00;101448.56;;;17.47;53.42
73516;BME280;61763;51.416;5.442;2022-09-25T10:31:35;101456.63;;;16.95;53.90
73516;BME280;61763;51.416;5.442;2022-09-25T10:36:41;101448.56;;;16.79;55.53
73516;BME280;61763;51.416;5.442;2022-09-25T10:39:30;101442.44;;;17.30;54.88
73516;BME280;61763;51.416;5.442;2022-09-25T10:41:58;101447.81;;;17.83;53.19
73516;BME280;61763;51.416;5.442;2022-09-25T10:44:42;101441.97;;;18.39;53.53
73516;BME280;61763;51.416;5.442;2022-09-25T10:50:21;101446.28;;;18.55;49.58
73516;BME280;61763;51.416;5.442;2022-09-25T10:52:52;101445.28;;;18.56;49.60
73516;BME280;61763;51.416;5.442;2022-09-25T10:57:46;101440.19;;;18.76;49.32
73516;BME280;61763;51.416;5.442;2022-09-25T11:00:22;101436.84;;;18.96;48.78
73516;BME280;61763;51.416;5.442;2022-09-25T11:02:50;101441.13;;;18.63;48.82
73516;BME280;61763;51.416;5.442;2022-09-25T11:05:19;101441.69;;;18.18;50.39
73516;BME280;61763;51.416;5.442;2022-09-25T11:07:52;101441.50;;;17.96;51.53
73516;BME280;61763;51.416;5.442;2022-09-25T11:10:25;101438.59;;;18.36;51.54
73516;BME280;61763;51.416;5.442;2022-09-25T11:12:52;101440.91;;;18.29;52.03
73516;BME280;61763;51.416;5.442;2022-09-25T11:15:20;101431.00;;;18.52;51.00
73516;BME280;61763;51.416;5.442;2022-09-25T11:17:52;101437.81;;;18.71;53.27
73516;BME280;61763;51.416;5.442;2022-09-25T11:20:29;101440.09;;;18.77;48.84
73516;BME280;61763;51.416;5.442;2022-09-25T11:25:51;101439.25;;;19.01;45.56
73516;BME280;61763;51.416;5.442;2022-09-25T11:29:14;101436.69;;;18.49;46.66
73516;BME280;61763;51.416;5.442;2022-09-25T11:31:58;101438.53;;;17.99;50.48
73516;BME280;61763;51.416;5.442;2022-09-25T11:37:21;101443.72;;;17.25;50.95
73516;BME280;61763;51.416;5.442;2022-09-25T11:39:55;101445.22;;;17.16;51.76
73516;BME280;61763;51.416;5.442;2022-09-25T11:45:48;101416.16;;;17.94;49.50
73516;BME280;61763;51.416;5.442;2022-09-25T11:54:53;101401.41;;;19.30;48.99
73516;BME280;61763;51.416;5.442;2022-09-25T11:57:37;101398.56;;;19.43;47.50
73516;BME280;61763;51.416;5.442;2022-09-25T12:00:20;101408.94;;;19.51;47.18
73516;BME280;61763;51.416;5.442;2022-09-25T12:05:49;101405.25;;;19.39;45.40
73516;BME280;61763;51.416;5.442;2022-09-25T12:25:08;101376.56;;;18.98;43.13
73516;BME280;61763;51.416;5.442;2022-09-25T12:27:54;101372.41;;;18.56;44.32
73516;BME280;61763;51.416;5.442;2022-09-25T12:30:25;101376.63;;;17.99;48.22
73516;BME280;61763;51.416;5.442;2022-09-25T12:36:08;101375.50;;;17.12;49.35
73516;BME280;61763;51.416;5.442;2022-09-25T12:38:49;101388.31;;;17.24;49.69
73516;BME280;61763;51.416;5.442;2022-09-25T12:41:28;101375.88;;;17.33;48.23
73516;BME280;61763;51.416;5.442;2022-09-25T12:46:56;101365.53;;;18.51;46.12
73516;BME280;61763;51.416;5.442;2022-09-25T12:49:27;101356.41;;;18.99;44.01
73516;BME280;61763;51.416;5.442;2022-09-25T12:51:58;101361.31;;;19.18;44.19
73516;BME280;61763;51.416;5.442;2022-09-25T12:57:09;101352.88;;;19.10;47.43
73516;BME280;61763;51.416;5.442;2022-09-25T12:59:42;101356.50;;;18.62;49.30
73516;BME280;61763;51.416;5.442;2022-09-25T13:07:28;101347.53;;;18.35;50.51
73516;BME280;61763;51.416;5.442;2022-09-25T13:09:56;101332.34;;;19.04;48.27
73516;BME280;61763;51.416;5.442;2022-09-25T13:12:37;101337.22;;;19.68;47.57
73516;BME280;61763;51.416;5.442;2022-09-25T13:15:10;101334.16;;;19.95;45.96
73516;BME280;61763;51.416;5.442;2022-09-25T13:17:38;101337.16;;;19.92;47.53
73516;BME280;61763;51.416;5.442;2022-09-25T13:23:10;101329.69;;;20.38;47.14
73516;BME280;61763;51.416;5.442;2022-09-25T13:25:42;101324.59;;;20.34;40.57
73516;BME280;61763;51.416;5.442;2022-09-25T13:28:19;101322.59;;;19.81;43.75
73516;BME280;61763;51.416;5.442;2022-09-25T13:31:03;101322.34;;;18.91;46.01
73516;BME280;61763;51.416;5.442;2022-09-25T13:33:48;101333.06;;;18.22;48.99
73516;BME280;61763;51.416;5.442;2022-09-25T13:38:52;101332.44;;;17.56;52.05
73516;BME280;61763;51.416;5.442;2022-09-25T13:42:30;101332.88;;;17.37;53.42
73516;BME280;61763;51.416;5.442;2022-09-25T13:48:09;101327.81;;;17.69;53.35
73516;BME280;61763;51.416;5.442;2022-09-25T13:50:46;101318.53;;;17.72;52.60
73516;BME280;61763;51.416;5.442;2022-09-25T13:53:20;101316.31;;;18.02;50.48
73516;BME280;61763;51.416;5.442;2022-09-25T13:58:23;101310.25;;;17.73;50.28
73516;BME280;61763;51.416;5.442;2022-09-25T14:06:10;101313.22;;;17.44;53.07
73516;BME280;61763;51.416;5.442;2022-09-25T14:08:38;101314.31;;;17.03;53.56
73516;BME280;61763;51.416;5.442;2022-09-25T14:11:07;101311.44;;;16.52;54.24
73516;BME280;61763;51.416;5.442;2022-09-25T14:13:33;101305.34;;;16.48;56.39
73516;BME280;61763;51.416;5.442;2022-09-25T14:16:00;101306.38;;;16.33;55.44
73516;BME280;61763;51.416;5.442;2022-09-25T14:18:42;101306.47;;;16.04;55.58
73516;BME280;61763;51.416;5.442;2022-09-25T14:21:13;101301.81;;;15.91;57.95
73516;BME280;61763;51.416;5.442;2022-09-25T14:23:54;101296.59;;;15.88;57.48
73516;BME280;61763;51.416;5.442;2022-09-25T14:26:27;101298.53;;;15.86;57.56
73516;BME280;61763;51.416;5.442;2022-09-25T14:28:56;101295.72;;;15.88;58.47
73516;BME280;61763;51.416;5.442;2022-09-25T14:37:29;101293.84;;;16.30;58.57
73516;BME280;61763;51.416;5.442;2022-09-25T14:45:35;101288.94;;;16.62;56.08
73516;BME280;61763;51.416;5.442;2022-09-25T14:48:10;101286.78;;;16.80;55.41
73516;BME280;61763;51.416;5.442;2022-09-25T14:50:46;101284.91;;;16.81;56.26
73516;BME280;61763;51.416;5.442;2022-09-25T14:53:22;101282.81;;;16.99;53.78
73516;BME280;61763;51.416;5.442;2022-09-25T14:55:50;101286.84;;;16.93;54.17
73516;BME280;61763;51.416;5.442;2022-09-25T14:58:20;101284.63;;;16.98;54.52
73516;BME280;61763;51.416;5.442;2022-09-25T15:00:50;101275.03;;;16.93;54.17
73516;BME280;61763;51.416;5.442;2022-09-25T15:03:19;101281.16;;;16.96;54.29
73516;BME280;61763;51.416;5.442;2022-09-25T15:05:48;101281.22;;;16.82;53.69
73516;BME280;61763;51.416;5.442;2022-09-25T15:08:33;101268.25;;;16.73;53.21
73516;BME280;61763;51.416;5.442;2022-09-25T15:11:18;101259.19;;;16.59;55.21
73516;BME280;61763;51.416;5.442;2022-09-25T15:13:45;101258.53;;;16.69;55.44
73516;BME280;61763;51.416;5.442;2022-09-25T15:16:16;101263.66;;;16.73;52.48
73516;BME280;61763;51.416;5.442;2022-09-25T15:19:02;101258.06;;;16.62;53.27
73516;BME280;61763;51.416;5.442;2022-09-25T15:21:33;101257.84;;;16.65;53.15
73516;BME280;61763;51.416;5.442;2022-09-25T15:24:05;101257.84;;;16.65;54.76
73516;BME280;61763;51.416;5.442;2022-09-25T15:26:43;101257.09;;;16.63;55.75
73516;BME280;61763;51.416;5.442;2022-09-25T15:29:18;101264.06;;;16.54;56.33
73516;BME280;61763;51.416;5.442;2022-09-25T15:31:45;101266.34;;;16.60;56.99
73516;BME280;61763;51.416;5.442;2022-09-25T15:34:25;101265.03;;;16.53;56.28